Time;durP1;ratioP1;P1;durP2;ratioP2;P2;SDS_P1;SDS_P2;PMS_P1;PMS_P2;Temp;Humidity;BMP_temperature;BMP_pressure;BME280_temperature;BME280_humidity;BME280_pressure;Samples;Min_cycle;Max_cycle;Signal;HPM_P1;HPM_P2
2023/12/06 00:00:20;;;;;;;4.63;3.30;;;25.70;49.00;;;;;;5024455;28;20029;-51
2023/12/06 00:02:45;;;;;;;5.85;3.60;;;25.70;49.00;;;;;;5027555;28;20038;-52
2023/12/06 00:05:11;;;;;;;4.78;3.30;;;25.70;49.00;;;;;;5025678;28;20064;-52
2023/12/06 00:07:37;;;;;;;4.60;3.78;;;25.70;49.60;;;;;;5040859;28;20565;-52
2023/12/06 00:10:03;;;;;;;5.07;3.60;;;25.70;49.00;;;;;;5024777;28;20034;-51
2023/12/06 00:12:29;;;;;;;4.82;3.38;;;25.70;48.90;;;;;;5024334;28;20033;-49
2023/12/06 00:14:54;;;;;;;3.58;3.05;;;25.70;48.90;;;;;;5026284;28;20033;-51
2023/12/06 00:17:20;;;;;;;3.72;3.20;;;25.70;49.00;;;;;;5025988;28;20026;-51
2023/12/06 00:19:45;;;;;;;4.68;2.95;;;25.70;49.00;;;;;;5025559;28;20237;-51
2023/12/06 00:22:11;;;;;;;4.57;3.53;;;25.70;49.00;;;;;;5026901;28;20033;-51
2023/12/06 00:24:37;;;;;;;4.20;2.95;;;25.70;49.00;;;;;;5024064;28;20021;-50
2023/12/06 00:27:03;;;;;;;3.53;3.22;;;25.70;49.10;;;;;;5026847;28;20509;-60
2023/12/06 00:29:29;;;;;;;3.40;2.70;;;25.70;49.10;;;;;;5024423;28;20030;-51
2023/12/06 00:31:55;;;;;;;5.00;2.63;;;25.70;49.00;;;;;;5025637;28;20115;-49
2023/12/06 00:34:20;;;;;;;3.65;2.83;;;25.70;49.00;;;;;;5024321;28;20030;-51
2023/12/06 00:36:47;;;;;;;4.20;3.30;;;25.70;48.80;;;;;;5040212;28;20042;-54
2023/12/06 00:39:13;;;;;;;3.88;2.85;;;25.80;49.60;;;;;;5024388;28;20056;-52
2023/12/06 00:41:39;;;;;;;3.92;3.03;;;25.70;48.90;;;;;;5025098;28;20475;-50
2023/12/06 00:44:05;;;;;;;4.40;3.15;;;25.70;49.00;;;;;;5024633;28;20064;-53
2023/12/06 00:46:30;;;;;;;3.47;3.03;;;25.70;48.90;;;;;;5024152;28;20512;-50
2023/12/06 00:48:58;;;;;;;3.00;2.70;;;25.70;48.90;;;;;;5028505;28;20117;-53
2023/12/06 00:51:24;;;;;;;2.58;2.38;;;25.70;48.90;;;;;;5025063;28;20045;-49
2023/12/06 00:53:49;;;;;;;4.28;2.85;;;25.80;48.90;;;;;;5027666;28;20049;-51
2023/12/06 00:56:14;;;;;;;3.75;2.75;;;25.80;48.90;;;;;;5024602;28;20029;-50
2023/12/06 00:58:44;;;;;;;3.65;2.78;;;25.80;48.80;;;;;;5026804;28;20029;-52
2023/12/06 01:01:12;;;;;;;4.05;3.22;;;25.80;48.80;;;;;;5021594;28;20029;-51
2023/12/06 01:03:38;;;;;;;2.83;2.58;;;25.70;49.00;;;;;;5026531;28;20160;-53
2023/12/06 01:06:04;;;;;;;3.03;2.63;;;25.70;49.10;;;;;;5023996;28;20035;-50
2023/12/06 01:08:30;;;;;;;3.75;2.58;;;25.60;49.30;;;;;;5025337;28;20033;-52
2023/12/06 01:10:55;;;;;;;2.90;2.60;;;25.40;49.40;;;;;;5024906;28;20060;-53
2023/12/06 01:13:21;;;;;;;2.67;2.40;;;25.30;49.60;;;;;;5020265;28;20113;-50
2023/12/06 01:15:46;;;;;;;3.40;2.67;;;25.20;49.90;;;;;;5024308;28;20022;-50
2023/12/06 01:18:13;;;;;;;3.08;2.42;;;25.00;50.00;;;;;;5028064;28;20117;-55
2023/12/06 01:20:38;;;;;;;3.85;2.78;;;24.90;50.30;;;;;;5021149;28;20045;-54
2023/12/06 01:23:05;;;;;;;3.35;2.90;;;24.80;50.60;;;;;;5027375;28;20040;-53
2023/12/06 01:25:31;;;;;;;3.40;2.67;;;24.60;50.80;;;;;;5023534;28;20526;-52
2023/12/06 01:27:57;;;;;;;2.25;2.05;;;24.50;51.10;;;;;;5025644;28;20041;-52
2023/12/06 01:30:22;;;;;;;3.22;2.50;;;24.40;51.30;;;;;;5024466;28;20022;-55
2023/12/06 01:32:48;;;;;;;2.90;2.30;;;24.20;51.40;;;;;;5025989;28;20025;-49
2023/12/06 01:35:13;;;;;;;3.08;2.30;;;24.10;51.60;;;;;;5023835;28;20474;-53
2023/12/06 01:37:39;;;;;;;2.83;2.00;;;24.00;51.80;;;;;;5024423;28;20041;-53
2023/12/06 01:40:06;;;;;;;2.92;2.25;;;24.00;51.90;;;;;;5024283;28;20041;-54
2023/12/06 01:42:31;;;;;;;3.65;2.78;;;23.90;52.00;;;;;;5023461;28;20597;-49
2023/12/06 01:44:57;;;;;;;3.35;2.55;;;23.90;52.00;;;;;;5024230;28;20128;-52
2023/12/06 01:47:24;;;;;;;2.65;2.22;;;24.00;51.80;;;;;;5023895;28;20040;-49
2023/12/06 01:49:52;;;;;;;3.05;2.63;;;24.10;51.50;;;;;;5023562;28;20464;-52
2023/12/06 01:52:17;;;;;;;4.07;2.75;;;24.30;51.10;;;;;;5023745;28;20045;-50
2023/12/06 01:54:43;;;;;;;2.70;2.10;;;24.40;50.80;;;;;;5031967;28;20051;-55
2023/12/06 01:57:10;;;;;;;3.17;2.38;;;24.60;50.40;;;;;;5022998;28;20144;-55
2023/12/06 01:59:36;;;;;;;3.08;2.20;;;24.80;50.20;;;;;;5016470;28;20037;-52
2023/12/06 02:02:02;;;;;;;2.58;2.00;;;24.90;49.70;;;;;;5019850;28;20190;-53
2023/12/06 02:04:28;;;;;;;2.75;2.22;;;25.10;49.40;;;;;;5017603;28;20065;-54
2023/12/06 02:06:54;;;;;;;2.47;2.00;;;25.20;49.20;;;;;;5019073;28;20030;-56
2023/12/06 02:09:20;;;;;;;2.40;1.95;;;25.30;49.10;;;;;;5035165;28;20080;-57
2023/12/06 02:11:46;;;;;;;2.97;2.03;;;25.40;48.90;;;;;;5020092;28;20036;-56
2023/12/06 02:14:11;;;;;;;2.13;1.90;;;25.50;48.60;;;;;;5019933;28;20116;-55
2023/12/06 02:16:37;;;;;;;1.60;1.50;;;25.70;48.60;;;;;;5020473;28;20033;-51
2023/12/06 02:19:04;;;;;;;2.90;2.20;;;25.70;48.60;;;;;;5037851;28;20043;-52
2023/12/06 02:21:30;;;;;;;3.03;1.83;;;25.70;48.50;;;;;;5018601;28;20572;-51
2023/12/06 02:23:58;;;;;;;2.33;1.85;;;25.80;48.50;;;;;;5022149;28;20037;-49
2023/12/06 02:26:24;;;;;;;2.45;1.80;;;25.80;48.50;;;;;;5008724;28;20687;-53
2023/12/06 02:28:54;;;;;;;3.10;2.10;;;25.70;48.40;;;;;;5012572;28;20030;-54
2023/12/06 02:31:20;;;;;;;1.75;1.65;;;25.80;48.30;;;;;;5017116;28;20033;-49
2023/12/06 02:33:48;;;;;;;2.25;1.88;;;25.80;48.30;;;;;;5025047;28;20022;-50
2023/12/06 02:36:15;;;;;;;2.15;1.90;;;25.80;48.30;;;;;;5007168;28;20679;-50
2023/12/06 02:38:41;;;;;;;2.17;1.75;;;25.90;48.30;;;;;;5019408;28;20037;-53
2023/12/06 02:41:09;;;;;;;2.10;1.90;;;26.00;48.20;;;;;;5024104;28;20072;-56
2023/12/06 02:43:35;;;;;;;2.60;1.55;;;26.00;48.20;;;;;;5015422;28;20061;-57
2023/12/06 02:46:00;;;;;;;2.40;2.20;;;26.00;48.20;;;;;;5017379;28;20050;-52
2023/12/06 02:48:26;;;;;;;2.35;2.13;;;26.00;48.20;;;;;;5007157;28;20026;-49
2023/12/06 02:50:51;;;;;;;1.70;1.60;;;26.00;48.20;;;;;;5015715;28;20112;-52
2023/12/06 02:53:17;;;;;;;1.77;1.48;;;26.10;48.00;;;;;;5022333;28;20618;-53
2023/12/06 02:55:42;;;;;;;1.92;1.63;;;26.20;48.00;;;;;;5022238;28;20051;-52
2023/12/06 02:58:08;;;;;;;2.13;1.77;;;26.20;47.90;;;;;;5020924;28;20059;-51
2023/12/06 03:00:33;;;;;;;2.63;1.80;;;26.20;47.90;;;;;;5023949;28;20154;-55
2023/12/06 03:02:59;;;;;;;1.70;1.33;;;26.20;48.00;;;;;;5016466;28;20059;-51
2023/12/06 03:05:24;;;;;;;1.70;1.55;;;26.20;48.00;;;;;;5010048;28;20033;-52
2023/12/06 03:07:50;;;;;;;1.92;1.58;;;26.20;48.00;;;;;;5007581;28;20036;-51
2023/12/06 03:10:15;;;;;;;1.65;1.52;;;26.20;48.10;;;;;;5013419;28;20557;-51
2023/12/06 03:12:41;;;;;;;1.92;1.55;;;26.10;48.10;;;;;;5009647;28;20255;-50
2023/12/06 03:15:07;;;;;;;1.52;1.42;;;26.10;48.30;;;;;;5013470;28;20249;-52
2023/12/06 03:17:32;;;;;;;2.25;1.50;;;26.00;48.30;;;;;;5023188;28;20045;-52
2023/12/06 03:19:58;;;;;;;2.88;2.15;;;26.00;48.50;;;;;;5026286;28;20601;-52
2023/12/06 03:22:23;;;;;;;1.70;1.42;;;26.00;48.50;;;;;;5018411;28;20026;-50
2023/12/06 03:24:49;;;;;;;1.50;1.25;;;26.00;48.40;;;;;;5022875;28;20116;-52
2023/12/06 03:27:14;;;;;;;1.60;1.45;;;26.00;48.40;;;;;;5018789;28;20033;-50
2023/12/06 03:29:40;;;;;;;2.78;1.42;;;26.00;48.40;;;;;;5021805;28;20594;-51
2023/12/06 03:32:06;;;;;;;1.67;1.40;;;25.90;48.50;;;;;;5022397;28;20064;-54
2023/12/06 03:34:31;;;;;;;2.88;1.60;;;25.90;48.70;;;;;;5019607;28;20049;-51
2023/12/06 03:36:58;;;;;;;1.42;1.33;;;25.90;48.70;;;;;;5021143;28;20052;-49
2023/12/06 03:39:24;;;;;;;1.33;1.17;;;25.90;48.60;;;;;;5018853;28;20026;-50
2023/12/06 03:41:49;;;;;;;1.65;1.27;;;25.90;48.70;;;;;;5016286;28;20030;-56
2023/12/06 03:44:15;;;;;;;1.55;1.45;;;25.80;48.80;;;;;;5035001;28;20046;-50
2023/12/06 03:46:40;;;;;;;1.20;1.10;;;25.80;49.00;;;;;;5023372;28;20039;-51
2023/12/06 03:49:06;;;;;;;1.60;1.00;;;25.80;48.70;;;;;;5023727;28;20132;-51
2023/12/06 03:51:31;;;;;;;1.70;1.60;;;25.70;48.70;;;;;;5022858;28;20690;-51
2023/12/06 03:53:57;;;;;;;1.30;1.20;;;25.80;48.90;;;;;;5016198;28;20133;-49
2023/12/06 03:56:22;;;;;;;1.70;1.20;;;25.70;48.70;;;;;;5027034;28;20030;-50
2023/12/06 03:58:48;;;;;;;1.85;1.63;;;25.70;48.90;;;;;;5018417;28;20045;-51
2023/12/06 04:01:13;;;;;;;2.03;1.52;;;25.70;48.90;;;;;;5015322;28;20030;-51
2023/12/06 04:03:40;;;;;;;2.58;1.45;;;25.70;49.00;;;;;;5027207;28;20041;-50
2023/12/06 04:06:07;;;;;;;1.90;1.55;;;25.70;49.10;;;;;;5011761;28;20065;-49
2023/12/06 04:08:32;;;;;;;1.35;1.05;;;25.70;49.00;;;;;;5025095;28;20079;-52
2023/12/06 04:10:58;;;;;;;1.52;1.33;;;25.60;49.00;;;;;;5008675;28;20026;-50
2023/12/06 04:13:23;;;;;;;1.52;1.42;;;25.60;49.00;;;;;;5020098;28;20504;-51
2023/12/06 04:15:48;;;;;;;1.45;1.35;;;25.60;49.10;;;;;;5007573;28;20029;-51
2023/12/06 04:18:14;;;;;;;1.58;1.40;;;25.60;49.10;;;;;;5020341;28;20040;-51
2023/12/06 04:20:39;;;;;;;1.60;1.40;;;25.50;49.00;;;;;;5018309;28;20365;-50
2023/12/06 04:23:05;;;;;;;1.20;1.10;;;25.50;49.10;;;;;;5027484;28;20037;-49
2023/12/06 04:25:30;;;;;;;1.98;1.35;;;25.50;49.00;;;;;;5037754;28;20029;-51
2023/12/06 04:27:56;;;;;;;1.30;1.10;;;25.50;49.00;;;;;;5034532;28;20029;-50
2023/12/06 04:30:21;;;;;;;1.35;1.23;;;25.50;49.10;;;;;;5025124;28;20029;-50
2023/12/06 04:32:47;;;;;;;1.33;1.23;;;25.50;49.10;;;;;;5024503;28;20033;-51
2023/12/06 04:35:12;;;;;;;1.15;1.00;;;25.50;49.00;;;;;;5019089;28;20097;-52
2023/12/06 04:37:38;;;;;;;1.92;1.20;;;25.50;49.20;;;;;;5025637;28;20037;-51
2023/12/06 04:40:05;;;;;;;1.20;1.05;;;25.50;49.70;;;;;;5031148;28;20167;-51
2023/12/06 04:42:31;;;;;;;1.30;1.10;;;25.50;49.20;;;;;;5027953;28;20372;-51
2023/12/06 04:44:57;;;;;;;1.33;1.20;;;25.50;49.30;;;;;;5029666;28;20048;-51
2023/12/06 04:47:22;;;;;;;1.15;1.00;;;25.40;49.30;;;;;;5026197;28;20026;-51
2023/12/06 04:49:48;;;;;;;1.30;1.20;;;25.30;49.20;;;;;;5018727;28;20431;-51
2023/12/06 04:52:13;;;;;;;2.17;1.20;;;25.30;49.40;;;;;;5029563;28;20030;-49
2023/12/06 04:54:39;;;;;;;1.13;0.85;;;25.30;50.20;;;;;;5051994;28;20082;-50
2023/12/06 04:57:05;;;;;;;1.30;1.20;;;25.20;49.50;;;;;;5020717;28;20124;-49
2023/12/06 04:59:30;;;;;;;1.30;1.13;;;25.20;49.60;;;;;;5046320;28;20159;-52
2023/12/06 05:01:56;;;;;;;1.15;1.00;;;25.10;49.60;;;;;;5014445;28;20087;-51
2023/12/06 05:04:22;;;;;;;1.23;1.08;;;25.10;49.80;;;;;;5010890;28;20041;-50
2023/12/06 05:06:49;;;;;;;1.20;1.10;;;25.00;49.70;;;;;;5025873;28;20622;-53
2023/12/06 05:09:14;;;;;;;1.25;1.08;;;24.90;49.80;;;;;;5028206;28;20033;-50
2023/12/06 05:11:40;;;;;;;1.55;1.27;;;24.90;49.80;;;;;;5018193;28;20110;-52
2023/12/06 05:14:05;;;;;;;1.30;1.10;;;24.90;49.90;;;;;;5029598;28;20601;-51
2023/12/06 05:16:31;;;;;;;1.35;0.95;;;24.90;50.00;;;;;;5022206;28;20041;-52
2023/12/06 05:18:56;;;;;;;2.78;1.25;;;24.80;49.90;;;;;;5026661;28;20124;-51
2023/12/06 05:21:21;;;;;;;1.13;1.02;;;24.80;50.10;;;;;;5030715;28;20021;-50
2023/12/06 05:23:48;;;;;;;1.13;1.00;;;24.80;50.10;;;;;;5037100;28;20117;-52
2023/12/06 05:26:14;;;;;;;1.45;1.05;;;24.70;50.10;;;;;;5023585;28;20025;-52
2023/12/06 05:28:39;;;;;;;1.30;1.20;;;24.70;50.10;;;;;;5030049;28;20029;-53
2023/12/06 05:31:05;;;;;;;1.80;1.40;;;24.70;50.20;;;;;;5018843;28;20483;-49
2023/12/06 05:33:30;;;;;;;1.63;1.08;;;24.70;50.10;;;;;;5027966;28;20025;-51
2023/12/06 05:35:55;;;;;;;1.25;1.10;;;24.60;50.20;;;;;;5029906;28;20041;-50
2023/12/06 05:38:22;;;;;;;2.60;1.38;;;24.60;50.20;;;;;;5028213;28;20026;-49
2023/12/06 05:40:48;;;;;;;1.95;1.20;;;24.60;51.00;;;;;;5024885;28;20037;-51
2023/12/06 05:43:13;;;;;;;1.77;1.38;;;24.60;50.20;;;;;;5027752;28;20379;-51
2023/12/06 05:45:39;;;;;;;1.25;1.05;;;24.60;50.20;;;;;;5019900;28;20044;-52
2023/12/06 05:48:04;;;;;;;1.40;1.25;;;24.50;50.20;;;;;;5026095;28;20122;-52
2023/12/06 05:50:30;;;;;;;1.63;1.08;;;24.50;50.30;;;;;;5023650;28;20094;-52
2023/12/06 05:52:57;;;;;;;1.50;1.40;;;24.50;50.30;;;;;;5027751;28;20121;-52
2023/12/06 05:55:23;;;;;;;1.40;1.30;;;24.40;50.40;;;;;;5016484;28;20509;-53
2023/12/06 05:57:48;;;;;;;1.65;1.15;;;24.40;50.40;;;;;;5023869;28;20034;-52
2023/12/06 06:00:15;;;;;;;1.40;1.25;;;24.30;50.40;;;;;;5024532;28;20478;-52
2023/12/06 06:02:43;;;;;;;2.22;1.17;;;24.30;50.50;;;;;;5028058;28;20034;-51
2023/12/06 06:05:09;;;;;;;2.20;1.13;;;24.30;50.50;;;;;;5022392;28;20125;-51
2023/12/06 06:07:34;;;;;;;1.30;1.20;;;24.30;50.60;;;;;;5020850;28;20030;-51
2023/12/06 06:10:00;;;;;;;1.75;1.27;;;24.20;50.50;;;;;;5024713;28;20038;-51
2023/12/06 06:12:25;;;;;;;1.50;1.40;;;24.30;50.70;;;;;;5023690;28;20443;-51
2023/12/06 06:14:51;;;;;;;4.13;1.55;;;24.30;50.60;;;;;;5012551;28;20209;-54
2023/12/06 06:17:16;;;;;;;1.33;1.20;;;24.30;50.60;;;;;;5016869;28;20110;-51
2023/12/06 06:19:42;;;;;;;1.35;1.23;;;24.30;50.50;;;;;;5023605;28;20546;-51
2023/12/06 06:22:07;;;;;;;1.33;1.23;;;24.30;50.50;;;;;;5024429;28;20044;-51
2023/12/06 06:24:34;;;;;;;2.17;1.20;;;24.40;50.40;;;;;;5021537;28;20044;-51
2023/12/06 06:26:59;;;;;;;1.65;1.20;;;24.40;50.30;;;;;;5018615;28;20030;-51
2023/12/06 06:29:25;;;;;;;1.67;1.20;;;24.40;50.10;;;;;;5022962;28;20026;-52
2023/12/06 06:31:50;;;;;;;1.55;1.20;;;24.50;50.20;;;;;;5029715;28;20029;-51
2023/12/06 06:34:16;;;;;;;1.40;1.27;;;24.50;50.00;;;;;;5021560;28;20033;-52
2023/12/06 06:36:41;;;;;;;1.52;1.40;;;24.50;50.00;;;;;;5021448;28;20426;-51
2023/12/06 06:39:07;;;;;;;1.38;1.10;;;24.50;49.90;;;;;;5024781;28;20041;-52
2023/12/06 06:41:32;;;;;;;1.60;1.33;;;24.50;50.00;;;;;;5022752;28;20033;-51
2023/12/06 06:43:58;;;;;;;1.40;1.30;;;24.50;49.90;;;;;;5023870;28;20058;-50
2023/12/06 06:46:23;;;;;;;1.48;0.98;;;24.60;49.90;;;;;;5019814;28;20029;-52
2023/12/06 06:48:49;;;;;;;2.33;1.17;;;24.60;49.90;;;;;;5034655;28;20033;-52
2023/12/06 06:51:14;;;;;;;1.50;1.25;;;24.60;49.80;;;;;;5020025;28;20030;-51
2023/12/06 06:53:40;;;;;;;2.20;1.17;;;24.60;50.10;;;;;;5014610;28;20808;-51
2023/12/06 06:56:05;;;;;;;2.50;1.52;;;24.70;49.80;;;;;;5013758;28;20041;-51
2023/12/06 06:58:31;;;;;;;3.05;0.93;;;24.70;49.70;;;;;;5016818;28;20678;-50
2023/12/06 07:00:56;;;;;;;1.27;1.17;;;24.70;49.70;;;;;;5010375;28;20095;-51
2023/12/06 07:03:22;;;;;;;1.77;1.20;;;24.70;49.60;;;;;;5010551;28;20033;-50
2023/12/06 07:05:48;;;;;;;1.77;1.52;;;24.70;49.50;;;;;;5005874;28;20434;-52
2023/12/06 07:08:13;;;;;;;1.30;1.20;;;24.70;49.60;;;;;;5016050;28;20042;-50
2023/12/06 07:10:39;;;;;;;1.85;1.20;;;24.80;49.50;;;;;;5010956;28;20029;-50
2023/12/06 07:13:05;;;;;;;1.08;0.98;;;24.80;49.40;;;;;;5010351;28;20068;-50
2023/12/06 07:15:31;;;;;;;2.40;1.15;;;24.80;49.20;;;;;;5028327;28;20061;-50
2023/12/06 07:17:56;;;;;;;1.45;1.30;;;24.80;49.30;;;;;;5013548;28;20115;-50
2023/12/06 07:20:24;;;;;;;1.50;1.20;;;24.90;49.30;;;;;;5014637;28;20037;-50
2023/12/06 07:22:49;;;;;;;1.88;1.08;;;24.90;49.10;;;;;;5015141;28;20064;-49
2023/12/06 07:25:15;;;;;;;1.20;1.10;;;25.00;49.20;;;;;;5011249;28;20036;-51
2023/12/06 07:27:44;;;;;;;1.25;1.15;;;25.00;49.00;;;;;;5010409;28;20120;-50
2023/12/06 07:30:12;;;;;;;1.90;1.38;;;25.10;49.00;;;;;;5009573;28;20042;-51
2023/12/06 07:32:37;;;;;;;1.45;1.23;;;25.10;49.00;;;;;;5009364;28;20149;-50
2023/12/06 07:35:03;;;;;;;1.48;1.20;;;25.10;49.00;;;;;;5011354;28;20125;-50
2023/12/06 07:37:29;;;;;;;1.23;1.13;;;25.10;48.90;;;;;;5012791;28;20600;-50
2023/12/06 07:39:54;;;;;;;2.45;1.38;;;25.20;48.80;;;;;;5011811;28;20038;-51
2023/12/06 07:42:20;;;;;;;2.30;1.10;;;25.20;48.80;;;;;;5009062;28;20040;-50
2023/12/06 07:44:46;;;;;;;1.65;1.20;;;25.20;48.70;;;;;;5014536;28;20495;-51
2023/12/06 07:47:11;;;;;;;2.45;1.33;;;25.20;48.60;;;;;;5012602;28;20111;-52
2023/12/06 07:49:37;;;;;;;1.52;1.10;;;25.30;48.60;;;;;;5009998;28;20030;-53
2023/12/06 07:52:02;;;;;;;1.70;1.10;;;25.30;48.70;;;;;;5014288;28;20059;-53
2023/12/06 07:54:28;;;;;;;2.53;1.27;;;25.30;48.80;;;;;;5013295;28;20271;-51
2023/12/06 07:56:53;;;;;;;1.75;1.40;;;25.10;48.80;;;;;;5019296;28;20049;-52
2023/12/06 07:59:18;;;;;;;1.40;1.30;;;25.10;49.00;;;;;;5022784;28;20020;-50
2023/12/06 08:01:44;;;;;;;2.17;1.38;;;24.90;49.30;;;;;;5012887;28;20022;-49
2023/12/06 08:04:10;;;;;;;1.20;1.00;;;24.80;49.50;;;;;;5009961;28;20506;-50
2023/12/06 08:06:35;;;;;;;1.50;1.20;;;24.70;49.70;;;;;;5013111;28;20163;-50
2023/12/06 08:09:01;;;;;;;2.03;1.42;;;24.60;49.90;;;;;;5010260;28;20117;-51
2023/12/06 08:11:26;;;;;;;1.92;1.23;;;24.40;50.10;;;;;;5012177;28;20026;-52
2023/12/06 08:13:52;;;;;;;1.45;1.20;;;24.30;50.30;;;;;;5009445;28;20503;-53
2023/12/06 08:16:18;;;;;;;1.75;1.30;;;24.20;50.60;;;;;;5009766;28;20458;-52
2023/12/06 08:18:43;;;;;;;2.55;1.55;;;24.10;50.70;;;;;;5006531;28;20465;-54
2023/12/06 08:21:08;;;;;;;3.15;1.77;;;24.00;51.00;;;;;;5004772;28;20038;-56
2023/12/06 08:23:35;;;;;;;2.67;1.55;;;23.90;51.20;;;;;;5010982;28;20037;-57
2023/12/06 08:26:01;;;;;;;1.42;1.27;;;23.70;51.30;;;;;;5006326;28;20057;-50
2023/12/06 08:28:26;;;;;;;2.35;1.70;;;23.70;51.40;;;;;;5003672;28;20045;-51
2023/12/06 08:30:52;;;;;;;3.30;1.55;;;23.60;51.50;;;;;;5023561;28;20042;-52
2023/12/06 08:33:19;;;;;;;1.65;1.52;;;23.60;51.60;;;;;;5009973;28;20030;-52
2023/12/06 08:35:45;;;;;;;2.08;1.70;;;23.50;51.60;;;;;;5002092;28;20053;-51
2023/12/06 08:38:11;;;;;;;2.55;1.92;;;23.50;51.60;;;;;;5006957;28;20068;-50
2023/12/06 08:40:36;;;;;;;2.40;1.90;;;23.50;51.70;;;;;;5013053;28;20041;-51
2023/12/06 08:43:03;;;;;;;3.08;1.63;;;23.50;51.70;;;;;;5009755;28;20045;-54
2023/12/06 08:45:28;;;;;;;3.40;2.05;;;23.50;51.60;;;;;;5007203;28;20095;-52
2023/12/06 08:47:54;;;;;;;2.15;1.63;;;23.50;51.70;;;;;;5005110;28;20900;-54
2023/12/06 08:50:19;;;;;;;2.30;1.80;;;23.50;51.60;;;;;;5006852;28;20179;-51
2023/12/06 08:52:45;;;;;;;3.08;1.90;;;23.50;51.60;;;;;;5010173;28;20154;-51
2023/12/06 08:55:11;;;;;;;4.82;2.63;;;23.50;51.40;;;;;;5012686;28;20038;-49
2023/12/06 08:57:36;;;;;;;2.47;1.60;;;23.60;51.40;;;;;;5008299;28;20128;-51
2023/12/06 09:00:07;;;;;;;3.40;1.80;;;23.60;51.30;;;;;;5009724;28;20033;-54
2023/12/06 09:02:34;;;;;;;2.90;1.70;;;23.60;51.10;;;;;;5012032;28;20495;-54
2023/12/06 09:04:59;;;;;;;2.25;1.55;;;23.70;51.00;;;;;;5006126;28;20048;-53
2023/12/06 09:07:25;;;;;;;1.73;1.45;;;23.70;50.90;;;;;;5010375;28;20037;-53
2023/12/06 09:09:50;;;;;;;3.67;1.67;;;23.80;50.80;;;;;;5008868;28;20061;-53
2023/12/06 09:12:16;;;;;;;2.08;1.67;;;23.80;50.70;;;;;;5009112;28;20041;-52
2023/12/06 09:14:41;;;;;;;4.10;2.17;;;23.90;50.40;;;;;;5006365;28;20754;-52
2023/12/06 09:17:07;;;;;;;4.35;1.65;;;24.00;50.40;;;;;;5004371;28;20042;-53
2023/12/06 09:19:32;;;;;;;2.47;1.92;;;24.00;50.30;;;;;;5000755;28;20033;-52
2023/12/06 09:21:58;;;;;;;2.10;1.60;;;24.10;50.10;;;;;;5004730;28;20034;-54
2023/12/06 09:24:23;;;;;;;2.88;1.60;;;24.10;50.00;;;;;;5008774;28;20789;-49
2023/12/06 09:26:49;;;;;;;3.40;1.83;;;24.20;50.00;;;;;;5001601;28;20091;-52
2023/12/06 09:29:14;;;;;;;2.80;2.17;;;24.30;49.90;;;;;;5006239;28;20057;-54
2023/12/06 09:31:39;;;;;;;1.70;1.50;;;24.30;49.70;;;;;;5004168;28;20099;-48
2023/12/06 09:34:06;;;;;;;2.10;1.60;;;24.40;49.70;;;;;;5000383;28;20034;-53
2023/12/06 09:36:32;;;;;;;2.90;1.35;;;24.50;49.50;;;;;;5009152;28;20446;-52
2023/12/06 09:38:58;;;;;;;1.98;1.63;;;24.50;49.40;;;;;;5008164;28;20081;-56
2023/12/06 09:41:29;;;;;;;2.30;1.40;;;24.60;49.20;;;;;;5010127;28;20057;-54
2023/12/06 09:43:55;;;;;;;1.85;1.40;;;24.70;49.20;;;;;;5005220;28;20034;-53
2023/12/06 09:46:22;;;;;;;1.45;1.35;;;24.70;49.00;;;;;;5004509;28;20034;-50
2023/12/06 09:48:48;;;;;;;3.05;1.70;;;24.80;48.80;;;;;;5002690;28;20270;-51
2023/12/06 09:51:14;;;;;;;1.48;1.38;;;24.90;48.90;;;;;;5009700;28;20823;-54
2023/12/06 09:53:40;;;;;;;2.50;1.63;;;24.90;48.70;;;;;;5006123;28;20072;-49
2023/12/06 09:56:08;;;;;;;2.05;1.50;;;25.00;48.70;;;;;;5003273;28;21016;-54
2023/12/06 09:58:34;;;;;;;1.90;1.50;;;25.10;48.60;;;;;;5011408;28;20194;-49
2023/12/06 10:01:01;;;;;;;2.13;1.52;;;25.20;48.40;;;;;;5015122;28;20038;-51
2023/12/06 10:03:30;;;;;;;1.48;1.10;;;25.20;48.30;;;;;;5020141;28;20029;-53
2023/12/06 10:06:03;;;;;;;3.58;1.75;;;25.30;48.20;;;;;;5014947;28;20076;-54
2023/12/06 10:08:29;;;;;;;1.80;1.50;;;25.40;48.10;;;;;;5007907;28;20037;-55
2023/12/06 10:11:02;;;;;;;1.67;1.20;;;25.50;48.10;;;;;;5005167;28;20099;-51
2023/12/06 10:13:32;;;;;;;1.63;1.30;;;25.50;48.10;;;;;;5013839;28;20138;-55
2023/12/06 10:15:58;;;;;;;2.20;1.70;;;25.50;47.80;;;;;;5009286;28;20068;-54
2023/12/06 10:18:24;;;;;;;2.50;1.45;;;25.60;47.00;;;;;;5009916;28;20058;-51
2023/12/06 10:20:50;;;;;;;4.25;1.73;;;25.20;46.80;;;;;;5008748;28;20044;-49
2023/12/06 10:23:15;;;;;;;3.22;1.95;;;25.30;46.70;;;;;;5013517;28;20117;-55
2023/12/06 10:25:41;;;;;;;4.57;1.50;;;25.40;46.90;;;;;;5011626;28;20064;-48
2023/12/06 10:28:07;;;;;;;4.53;1.80;;;25.40;47.10;;;;;;5020307;28;20120;-55
2023/12/06 10:30:33;;;;;;;2.58;1.58;;;25.40;47.30;;;;;;5019776;28;20429;-52
2023/12/06 10:32:59;;;;;;;10.82;1.77;;;25.30;47.70;;;;;;5020988;28;20026;-57
2023/12/06 10:35:25;;;;;;;3.65;1.73;;;25.20;48.00;;;;;;5021339;28;20656;-50
2023/12/06 10:37:51;;;;;;;4.10;1.70;;;25.00;48.20;;;;;;5018618;28;20041;-57
2023/12/06 10:40:18;;;;;;;2.85;1.50;;;24.90;48.30;;;;;;5015017;28;20037;-48
2023/12/06 10:42:50;;;;;;;2.28;1.48;;;24.80;48.80;;;;;;5014733;28;20055;-53
2023/12/06 10:45:17;;;;;;;2.80;1.58;;;24.70;49.00;;;;;;5016577;28;20046;-51
2023/12/06 10:47:44;;;;;;;3.33;1.45;;;24.50;49.20;;;;;;5014133;28;20033;-51
2023/12/06 10:50:11;;;;;;;5.82;1.20;;;24.40;50.20;;;;;;5009428;28;20037;-50
2023/12/06 10:52:38;;;;;;;2.72;1.65;;;24.30;49.80;;;;;;5014100;28;20030;-51
2023/12/06 10:55:06;;;;;;;2.35;1.40;;;24.20;50.10;;;;;;5013436;28;20042;-50
2023/12/06 10:57:33;;;;;;;1.90;1.27;;;24.00;50.30;;;;;;5018450;28;20045;-55
2023/12/06 11:00:00;;;;;;;3.40;1.63;;;23.90;50.50;;;;;;5008137;28;20041;-53
2023/12/06 11:02:26;;;;;;;3.10;1.48;;;23.80;50.60;;;;;;5037755;28;20187;-49
2023/12/06 11:04:57;;;;;;;2.20;1.35;;;23.70;50.80;;;;;;5020945;28;20041;-53
2023/12/06 11:08:12;;;;;;;1.70;1.48;;;23.60;50.90;;;;;;5023223;28;20036;-52
2023/12/06 11:10:52;;;;;;;5.22;1.70;;;23.50;51.10;;;;;;5006061;28;20079;-50
2023/12/06 11:13:35;;;;;;;1.20;1.10;;;23.40;51.20;;;;;;5022555;28;20098;-52
2023/12/06 11:16:39;;;;;;;2.20;1.63;;;23.30;51.30;;;;;;5016141;28;20051;-48
2023/12/06 11:19:05;;;;;;;2.30;1.70;;;23.20;51.50;;;;;;5019973;28;20056;-51
2023/12/06 11:21:32;;;;;;;1.65;1.40;;;23.10;51.60;;;;;;5021540;28;20033;-56
2023/12/06 11:23:59;;;;;;;2.65;1.42;;;23.10;51.80;;;;;;5021177;28;20430;-49
2023/12/06 11:26:26;;;;;;;2.35;1.25;;;23.00;51.90;;;;;;5021725;28;20132;-53
2023/12/06 11:28:54;;;;;;;1.80;1.50;;;22.90;52.00;;;;;;5022946;28;20030;-48
2023/12/06 11:31:20;;;;;;;2.00;1.20;;;22.90;52.20;;;;;;5020740;28;20032;-51
2023/12/06 11:33:55;;;;;;;1.95;1.42;;;22.80;52.30;;;;;;5021462;28;20029;-49
2023/12/06 11:36:24;;;;;;;;;;;22.70;52.30;;;;;;5043375;22;20128;-54
2023/12/06 11:38:49;;;;;;;2.65;1.60;;;22.70;53.10;;;;;;5040079;28;19931;-54
2023/12/06 11:41:18;;;;;;;2.05;1.38;;;22.60;52.30;;;;;;5041868;28;20417;-54
2023/12/06 11:43:51;;;;;;;3.22;1.70;;;22.50;52.60;;;;;;5042466;28;20091;-52
2023/12/06 11:46:20;;;;;;;1.73;1.27;;;22.50;52.50;;;;;;5049752;28;20464;-56
2023/12/06 11:48:48;;;;;;;1.92;1.20;;;22.40;52.30;;;;;;5035995;28;20033;-51
2023/12/06 11:51:28;;;;;;;1.55;1.17;;;22.40;52.50;;;;;;5041631;28;20033;-52
2023/12/06 11:53:56;;;;;;;2.05;1.42;;;22.30;52.60;;;;;;5042388;28;20043;-50
2023/12/06 11:56:22;;;;;;;2.85;1.52;;;22.30;52.60;;;;;;5039959;28;20121;-54
2023/12/06 11:58:50;;;;;;;1.80;1.30;;;22.30;52.60;;;;;;5039424;28;20037;-52
2023/12/06 12:01:16;;;;;;;1.38;1.10;;;22.20;52.70;;;;;;5056753;28;20040;-50
2023/12/06 12:03:41;;;;;;;2.00;1.35;;;22.20;52.90;;;;;;5038306;28;20021;-50
2023/12/06 12:06:08;;;;;;;1.42;1.33;;;22.10;52.70;;;;;;5041692;28;20611;-50
2023/12/06 12:08:34;;;;;;;1.75;1.38;;;22.10;52.90;;;;;;5044662;28;20167;-55
2023/12/06 12:11:00;;;;;;;1.40;1.05;;;22.10;52.90;;;;;;5043982;28;20048;-56
2023/12/06 12:13:26;;;;;;;1.35;0.95;;;22.00;53.60;;;;;;5039102;28;20033;-51
2023/12/06 12:16:04;;;;;;;2.22;1.45;;;21.90;53.00;;;;;;5040858;28;20037;-51
2023/12/06 12:18:29;;;;;;;2.60;1.10;;;21.90;53.00;;;;;;5040439;28;20034;-56
2023/12/06 12:20:58;;;;;;;1.60;1.17;;;21.90;53.20;;;;;;5040399;28;20029;-52
2023/12/06 12:23:28;;;;;;;1.90;1.30;;;21.80;53.20;;;;;;5041184;28;20036;-50
2023/12/06 12:25:54;;;;;;;2.00;1.50;;;21.80;53.90;;;;;;5039411;28;20462;-49
2023/12/06 12:28:21;;;;;;;1.73;1.02;;;21.70;53.20;;;;;;5040763;28;20036;-50
2023/12/06 12:30:55;;;;;;;1.45;0.90;;;21.70;53.20;;;;;;5045618;28;20513;-50
2023/12/06 12:33:21;;;;;;;1.85;1.15;;;21.60;53.30;;;;;;5046761;28;20390;-52
2023/12/06 12:35:47;;;;;;;1.70;1.02;;;21.60;53.40;;;;;;5041361;28;20041;-52
2023/12/06 12:38:13;;;;;;;2.83;0.90;;;21.60;53.40;;;;;;5045595;28;20044;-54
2023/12/06 12:40:40;;;;;;;1.85;1.27;;;21.60;53.50;;;;;;5046381;28;20594;-55
2023/12/06 12:43:05;;;;;;;1.20;1.10;;;21.50;53.50;;;;;;5048670;28;20032;-52